Adolfo Suárez Madrid-Barajas Airport

LEMD · Madrid, Madrid, Spain

METAR history LEMD · Adolfo Suárez Madrid-Barajas Airport

Below you see METARs of the last few days. Select a year to browse through older METARs, from the year 2007 onwards.

February 22, 2024

Time Code Weather Temp. Visibility Ceiling Wind METAR/SPECI
15:30
M
14 °C 10 km+ 2,200 ft 230° 230° 15 - 25 kt METAR LEMD 221430Z 23015G25KT 9999 BKN022 14/09 Q1012 NOSIG
15:00
M
13 °C 10 km+ 2,500 ft 220° 220° 12 kt METAR LEMD 221400Z 22012KT 140V260 9999 BKN025 13/08 Q1013 NOSIG
14:30
M
13 °C 10 km+ 2,500 ft 220° 220° 17 kt METAR LEMD 221330Z 22017KT 9999 BKN025 13/08 Q1014 NOSIG
14:00
M
13 °C 10 km+ 2,400 ft 230° 230° 12 - 25 kt METAR LEMD 221300Z 23012G25KT 200V260 9999 BKN024 13/07 Q1015 NOSIG
13:30
M
12 °C 10 km+ 2,000 ft 220° 220° 16 - 30 kt METAR LEMD 221230Z 22016G30KT 200V260 9999 BKN020 12/07 Q1015 NOSIG
13:00
M
12 °C 10 km+ 2,000 ft 220° 220° 15 kt METAR LEMD 221200Z 22015KT 9999 BKN020 12/07 Q1016 NOSIG
12:30
M
11 °C 10 km+ 2,000 ft 200° 200° 12 - 22 kt METAR LEMD 221130Z 20012G22KT 170V240 9999 BKN020 11/07 Q1016 NOSIG
12:00
V
11 °C 10 km+ - 210° 210° 14 kt METAR LEMD 221100Z 21014KT 9999 SCT023 11/07 Q1016 NOSIG
11:30
V
12 °C 10 km+ - 220° 220° 12 kt METAR LEMD 221030Z 22012KT 9999 FEW020 12/06 Q1017 NOSIG
11:00
V
11 °C 10 km+ - 220° 220° 11 - 21 kt METAR LEMD 221000Z 22011G21KT 190V250 CAVOK 11/06 Q1017 NOSIG
10:30
V
11 °C 10 km+ - 220° 220° 11 - 24 kt METAR LEMD 220930Z 22011G24KT 170V240 CAVOK 11/06 Q1017 NOSIG
10:00
V
11 °C 10 km+ - 210° 210° 6 kt METAR LEMD 220900Z 21006KT 160V250 CAVOK 11/07 Q1017 NOSIG
09:30
V
8 °C 9 km - 360° 360° 0 kt METAR LEMD 220830Z 00000KT 9000 NSC 08/07 Q1017 NOSIG
09:00
V
7 °C 9 km - 360° 360° 3 kt METAR LEMD 220800Z 36003KT 9000 NSC 07/06 Q1018 NOSIG
08:30
V
6 °C 9 km - 140° 140° 2 kt METAR LEMD 220730Z 14002KT 9000 NSC 06/06 Q1018 NOSIG
08:00
V
6 °C 8 km - 360° 360° 0 kt METAR LEMD 220700Z 00000KT 8000 NSC 06/05 Q1018 NOSIG
07:30
V
5 °C 8 km - 360° 360° 0 kt METAR LEMD 220630Z 00000KT 8000 NSC 05/05 Q1018 NOSIG
07:00
V
6 °C 8 km - 360° 360° 0 kt METAR LEMD 220600Z 00000KT 8000 NSC 06/05 Q1018 NOSIG
06:30
V
7 °C 10 km+ - 030° 030° 2 kt METAR LEMD 220530Z 03002KT CAVOK 07/06 Q1018 NOSIG
06:00
V
7 °C 10 km+ - 360° 360° 2 kt METAR LEMD 220500Z 36002KT CAVOK 07/06 Q1018 NOSIG
05:30
V
8 °C 10 km+ - 360° 360° 0 kt METAR LEMD 220430Z 00000KT CAVOK 08/06 Q1018 NOSIG
05:00
V
9 °C 10 km+ - 360° 360° 0 kt METAR LEMD 220400Z 00000KT CAVOK 09/07 Q1019 NOSIG
04:30
V
9 °C 10 km+ - 100° 100° 3 kt METAR LEMD 220330Z 10003KT 050V150 CAVOK 09/08 Q1019 NOSIG
04:00
V
9 °C 10 km+ - 360° 360° 0 kt METAR LEMD 220300Z 00000KT CAVOK 09/07 Q1019 NOSIG
03:30
V
9 °C 10 km+ - 360° 360° 2 kt METAR LEMD 220230Z 36002KT CAVOK 09/07 Q1020 NOSIG
03:00
V
10 °C 10 km+ - Var Var 2 kt METAR LEMD 220200Z VRB02KT CAVOK 10/08 Q1021 NOSIG
02:30
V
10 °C 10 km+ - 140° 140° 4 kt METAR LEMD 220130Z 14004KT CAVOK 10/08 Q1020 NOSIG
02:00
V
10 °C 10 km+ - 140° 140° 3 kt METAR LEMD 220100Z 14003KT CAVOK 10/07 Q1021 NOSIG
00:30
V
9 °C 10 km+ - 360° 360° 0 kt METAR LEMD 212330Z 00000KT CAVOK 09/06 Q1022 NOSIG
00:00
V
9 °C 10 km+ - 310° 310° 1 kt METAR LEMD 212300Z 31001KT CAVOK 09/06 Q1023 NOSIG

February 21, 2024

Time Code Weather Temp. Visibility Ceiling Wind METAR/SPECI
23:30
V
10 °C 10 km+ - 360° 360° 3 kt METAR LEMD 212230Z 36003KT 330V070 CAVOK 10/06 Q1023 NOSIG
23:00
V
10 °C 10 km+ - Var Var 2 kt METAR LEMD 212200Z VRB02KT CAVOK 10/07 Q1023 NOSIG
22:30
V
12 °C 10 km+ - 170° 170° 5 kt METAR LEMD 212130Z 17005KT CAVOK 12/07 Q1022 NOSIG
22:00
V
10 °C 10 km+ - 360° 360° 0 kt METAR LEMD 212100Z 00000KT CAVOK 10/07 Q1023 NOSIG
21:30
V
10 °C 10 km+ - Var Var 1 kt METAR LEMD 212030Z VRB01KT CAVOK 10/07 Q1023 NOSIG
21:00
V
12 °C 10 km+ - 190° 190° 1 kt METAR LEMD 212000Z 19001KT CAVOK 12/07 Q1023 NOSIG
20:30
V
11 °C 10 km+ - 360° 360° 0 kt METAR LEMD 211930Z 00000KT CAVOK 11/07 Q1023 NOSIG
20:00
V
13 °C 10 km+ - Var Var 2 kt METAR LEMD 211900Z VRB02KT CAVOK 13/07 Q1023 NOSIG
19:30
V
14 °C 10 km+ - 220° 220° 4 kt METAR LEMD 211830Z 22004KT 160V300 CAVOK 14/07 Q1023 NOSIG
19:00
V
15 °C 10 km+ - 280° 280° 4 kt METAR LEMD 211800Z 28004KT 240V310 CAVOK 15/06 Q1023 NOSIG
18:30
V
15 °C 10 km+ - 270° 270° 5 kt METAR LEMD 211730Z 27005KT 230V290 CAVOK 15/06 Q1023 NOSIG
18:00
V
15 °C 10 km+ - 220° 220° 5 kt METAR LEMD 211700Z 22005KT CAVOK 15/06 Q1023 NOSIG
17:30
V
16 °C 10 km+ - 200° 200° 3 kt METAR LEMD 211630Z 20003KT CAVOK 16/06 Q1023 NOSIG
17:00
V
15 °C 10 km+ - 360° 360° 0 kt METAR LEMD 211600Z 00000KT CAVOK 15/08 Q1023 NOSIG
16:30
V
15 °C 10 km+ - 360° 360° 0 kt METAR LEMD 211530Z 00000KT CAVOK 15/08 Q1023 NOSIG
16:00
V
15 °C 10 km+ - 360° 360° 0 kt METAR LEMD 211500Z 00000KT CAVOK 15/06 Q1024 NOSIG
15:30
V
15 °C 10 km+ - 360° 360° 0 kt METAR LEMD 211430Z 00000KT CAVOK 15/06 Q1024 NOSIG
15:00
V
14 °C 10 km+ - 360° 360° 0 kt METAR LEMD 211400Z 00000KT CAVOK 14/05 Q1025 NOSIG
14:30
V
14 °C 10 km+ - 360° 360° 0 kt METAR LEMD 211330Z 00000KT CAVOK 14/05 Q1025 NOSIG
14:00
V
13 °C 10 km+ - Var Var 2 kt METAR LEMD 211300Z VRB02KT CAVOK 13/04 Q1026 NOSIG
13:30
V
13 °C 10 km+ - Var Var 1 kt METAR LEMD 211230Z VRB01KT CAVOK 13/04 Q1026 NOSIG
13:00
V
13 °C 10 km+ - 170° 170° 1 kt METAR LEMD 211200Z 17001KT CAVOK 13/04 Q1027 NOSIG
12:30
V
11 °C 10 km+ - 360° 360° 0 kt METAR LEMD 211130Z 00000KT CAVOK 11/03 Q1027 NOSIG
12:00
V
10 °C 10 km+ - 360° 360° 0 kt METAR LEMD 211100Z 00000KT CAVOK 10/03 Q1027 NOSIG
11:30
V
10 °C 10 km+ - 360° 360° 0 kt METAR LEMD 211030Z 00000KT CAVOK 10/03 Q1027 NOSIG
11:00
V
8 °C 10 km+ - Var Var 2 kt METAR LEMD 211000Z VRB02KT CAVOK 08/02 Q1028 NOSIG
10:30
V
6 °C 10 km+ - Var Var 2 kt METAR LEMD 210930Z VRB02KT CAVOK 06/01 Q1028 NOSIG
10:00
V
6 °C 10 km+ - 360° 360° 0 kt METAR LEMD 210900Z 00000KT CAVOK 06/02 Q1028 NOSIG
09:30
V
4 °C 10 km+ - 360° 360° 0 kt METAR LEMD 210830Z 00000KT CAVOK 04/02 Q1028 NOSIG
09:00
V
3 °C 10 km+ - Var Var 2 kt METAR LEMD 210800Z VRB02KT CAVOK 03/01 Q1028 NOSIG
08:30
V
1 °C 10 km+ - 010° 010° 2 kt METAR LEMD 210730Z 01002KT CAVOK 01/M00 Q1027 NOSIG
08:00
V
2 °C 10 km+ - 360° 360° 0 kt METAR LEMD 210700Z 00000KT CAVOK 02/00 Q1027 NOSIG
07:30
V
2 °C 10 km+ - 010° 010° 3 kt METAR LEMD 210630Z 01003KT 350V050 CAVOK 02/01 Q1027 NOSIG
07:00
V
2 °C 10 km+ - 360° 360° 2 kt METAR LEMD 210600Z 36002KT CAVOK 02/01 Q1027 NOSIG
06:30
V
2 °C 10 km+ - Var Var 1 kt METAR LEMD 210530Z VRB01KT CAVOK 02/00 Q1027 NOSIG
06:00
V
2 °C 10 km+ - 360° 360° 0 kt METAR LEMD 210500Z 00000KT CAVOK 02/00 Q1027 NOSIG
05:30
V
3 °C 10 km+ - 360° 360° 0 kt METAR LEMD 210430Z 00000KT CAVOK 03/01 Q1027 NOSIG
05:00
V
2 °C 10 km+ - 360° 360° 0 kt METAR LEMD 210400Z 00000KT CAVOK 02/00 Q1027 NOSIG
04:30
V
3 °C 10 km+ - 360° 360° 1 kt METAR LEMD 210330Z 36001KT CAVOK 03/01 Q1027 NOSIG
04:00
V
3 °C 10 km+ - 020° 020° 3 kt METAR LEMD 210300Z 02003KT CAVOK 03/02 Q1027 NOSIG
03:30
V
4 °C 10 km+ - 320° 320° 3 kt METAR LEMD 210230Z 32003KT CAVOK 04/02 Q1028 NOSIG
03:00
V
4 °C 10 km+ - 360° 360° 3 kt METAR LEMD 210200Z 36003KT CAVOK 04/02 Q1028 NOSIG
02:30
V
4 °C 10 km+ - 330° 330° 2 kt METAR LEMD 210130Z 33002KT CAVOK 04/03 Q1028 NOSIG
02:00
V
3 °C 10 km+ - 330° 330° 3 kt METAR LEMD 210100Z 33003KT CAVOK 03/02 Q1028 NOSIG
01:30
V
5 °C 10 km+ - Var Var 1 kt METAR LEMD 210030Z VRB01KT CAVOK 05/04 Q1028 NOSIG
01:00
V
5 °C 10 km+ - Var Var 1 kt METAR LEMD 210000Z VRB01KT CAVOK 05/03 Q1029 NOSIG
00:30
V
5 °C 10 km+ - 330° 330° 3 kt METAR LEMD 202330Z 33003KT 310V020 CAVOK 05/03 Q1029 NOSIG
00:00
V
5 °C 10 km+ - 340° 340° 3 kt METAR LEMD 202300Z 34003KT CAVOK 05/03 Q1029 NOSIG

February 20, 2024

Time Code Weather Temp. Visibility Ceiling Wind METAR/SPECI
23:30
V
8 °C 10 km+ - 350° 350° 3 kt METAR LEMD 202230Z 35003KT CAVOK 08/05 Q1029 NOSIG
23:00
V
8 °C 10 km+ - 010° 010° 2 kt METAR LEMD 202200Z 01002KT CAVOK 08/06 Q1029 NOSIG
22:30
V
9 °C 10 km+ - Var Var 1 kt METAR LEMD 202130Z VRB01KT CAVOK 09/05 Q1029 NOSIG
22:00
V
10 °C 10 km+ - 360° 360° 0 kt METAR LEMD 202100Z 00000KT CAVOK 10/06 Q1029 NOSIG
21:30
V
10 °C 10 km+ - 360° 360° 0 kt METAR LEMD 202030Z 00000KT CAVOK 10/05 Q1029 NOSIG
21:00
V
12 °C 10 km+ - 010° 010° 3 kt METAR LEMD 202000Z 01003KT CAVOK 12/06 Q1029 NOSIG
20:30
V
12 °C 10 km+ - 340° 340° 2 kt METAR LEMD 201930Z 34002KT CAVOK 12/05 Q1028 NOSIG
20:00
V
13 °C 10 km+ - 020° 020° 2 kt METAR LEMD 201900Z 02002KT CAVOK 13/04 Q1028 NOSIG
19:30
V
13 °C 10 km+ - 360° 360° 0 kt METAR LEMD 201830Z 00000KT CAVOK 13/05 Q1028 NOSIG
19:00
V
15 °C 10 km+ - Var Var 2 kt METAR LEMD 201800Z VRB02KT CAVOK 15/05 Q1028 NOSIG
18:30
V
18 °C 10 km+ - 260° 260° 4 kt METAR LEMD 201730Z 26004KT CAVOK 18/04 Q1028 NOSIG
18:00
V
18 °C 10 km+ - 290° 290° 5 kt METAR LEMD 201700Z 29005KT CAVOK 18/04 Q1028 NOSIG
17:30
V
19 °C 10 km+ - 270° 270° 4 kt METAR LEMD 201630Z 27004KT 220V300 CAVOK 19/02 Q1028 NOSIG
17:00
V
20 °C 10 km+ - 260° 260° 3 kt METAR LEMD 201600Z 26003KT 220V300 CAVOK 20/01 Q1027 NOSIG
16:30
V
20 °C 10 km+ - 220° 220° 3 kt METAR LEMD 201530Z 22003KT 120V270 CAVOK 20/M00 Q1027 NOSIG
16:00
V
20 °C 10 km+ - 210° 210° 4 kt METAR LEMD 201500Z 21004KT 150V230 CAVOK 20/M01 Q1028 NOSIG
15:30
V
20 °C 10 km+ - 210° 210° 4 kt METAR LEMD 201430Z 21004KT 170V260 CAVOK 20/01 Q1028 NOSIG
15:00
V
19 °C 10 km+ - 170° 170° 2 kt METAR LEMD 201400Z 17002KT CAVOK 19/00 Q1029 NOSIG
14:30
V
19 °C 10 km+ - 210° 210° 4 kt METAR LEMD 201330Z 21004KT 140V300 CAVOK 19/00 Q1029 NOSIG
14:00
V
17 °C 10 km+ - Var Var 1 kt METAR LEMD 201300Z VRB01KT CAVOK 17/03 Q1030 NOSIG
13:30
V
17 °C 10 km+ - 360° 360° 0 kt METAR LEMD 201230Z 00000KT CAVOK 17/04 Q1031 NOSIG
13:00
V
15 °C 10 km+ - 240° 240° 1 kt METAR LEMD 201200Z 24001KT CAVOK 15/05 Q1031 NOSIG
12:30
V
14 °C 10 km+ - 360° 360° 0 kt METAR LEMD 201130Z 00000KT CAVOK 14/04 Q1031 NOSIG
12:00
V
12 °C 10 km+ - Var Var 2 kt METAR LEMD 201100Z VRB02KT CAVOK 12/04 Q1032 NOSIG
11:30
V
10 °C 10 km+ - Var Var 1 kt METAR LEMD 201030Z VRB01KT CAVOK 10/04 Q1032 NOSIG
11:00
V
9 °C 10 km+ - 340° 340° 1 kt METAR LEMD 201000Z 34001KT CAVOK 09/03 Q1032
10:30
V
7 °C 10 km+ - 310° 310° 3 kt METAR LEMD 200930Z 31003KT 270V350 CAVOK 07/02 Q1032 NOSIG
10:00
V
6 °C 10 km+ - Var Var 2 kt METAR LEMD 200900Z VRB02KT CAVOK 06/02 Q1032 NOSIG
09:30
V
4 °C 10 km+ - 360° 360° 1 kt METAR LEMD 200830Z 36001KT CAVOK 04/02 Q1032 NOSIG
09:00
V
3 °C 10 km+ - 360° 360° 0 kt METAR LEMD 200800Z 00000KT CAVOK 03/01 Q1031 NOSIG
08:30
V
2 °C 10 km+ - 340° 340° 2 kt METAR LEMD 200730Z 34002KT CAVOK 02/00 Q1031 NOSIG
08:00
V
2 °C 10 km+ - 360° 360° 3 kt METAR LEMD 200700Z 36003KT CAVOK 02/M00 Q1031 NOSIG
07:30
V
2 °C 10 km+ - 350° 350° 4 kt METAR LEMD 200630Z 35004KT CAVOK 02/M00 Q1031 NOSIG
07:00
V
2 °C 10 km+ - 360° 360° 3 kt METAR LEMD 200600Z 36003KT 340V040 CAVOK 02/00 Q1031 NOSIG